Portada
METAR-TAF:

METAR-TAF

Aeroports :

Curaçao, Antilles Neerlandeses

latitud: 12-12N, longitud: 068-58W, altitud: 9 m

Observació

L'informe es va fer fa 21 minuts, a les 12:00 UTC
Vent 14 kt del Est/Sud-Est
Temperatura 29°C
Humitat 66%
Pressió 1014 hPa
Visibilitat 10 km o més
Escasses núvols a una alçada de 2000 ft

METAR: TNCC 101200Z 11014KT 9999 FEW020 29/22 Q1014 NOSIG

Hora: 08:21 (12:21 UTC)

Pronòstic

L'informe es va fer fa 1 hora i 20 minuts, a les 11:01 UTC
Pronòstic vàlid del 10 a les 12 UTC al 11 a les 12 UTC
Vent 15 kt del Est/Sud-Est amb ràfegues de 26 kt
Visibilitat 10 km o més
Núvols disperses a una alçada de 2000 ft
Temporalment
l' 11 a les 02 UTC al 11 a les 12 UTC
Cel ennuvolat a una alçada de 1500 ft

TAF: TNCC 101101Z 1012/1112 11015G26KT 9999 SCT020 TEMPO 1102/1112 BKN015

Observacions i pronòstics meteorològics de més de 4000 aeroports (METAR i TAF).

Les estacions disponibles són els punts grocs i vermells al mapa.

Posi el ratolí al punt desitjat per veure el nom de l'estació.

Feu clic per veure les observacions i els pronòstics meteorològics.

Per canviar el mapa: feu clic els botons verds amb una creu de color negre per apropar; al botó verd amb un guió per allunyar la imatge; o en les fletxes verdes per a mapes adjacents.


METAR-TAF: